createdAt,value
2018-11-22T12:16:52.729Z,76.00
2018-11-22T12:19:20.165Z,83.03
2018-11-22T12:21:48.034Z,77.53
2018-11-22T12:24:15.521Z,84.07
2018-11-22T12:26:43.137Z,82.03
2018-11-22T12:29:10.633Z,93.40
2018-11-22T12:31:38.142Z,83.47
2018-11-22T12:34:11.085Z,82.23
2018-11-22T12:36:44.177Z,94.07
2018-11-22T12:39:15.035Z,88.77
2018-11-22T12:41:42.986Z,85.87
2018-11-22T12:44:10.476Z,87.97
2018-11-22T12:46:38.664Z,89.43
2018-11-22T12:49:06.155Z,82.13
2018-11-22T12:51:33.651Z,81.10
2018-11-22T12:54:01.311Z,86.77
2018-11-22T12:56:29.052Z,86.07
2018-11-22T12:58:56.532Z,84.03
2018-11-22T13:01:24.022Z,87.77
2018-11-22T13:03:51.577Z,93.43
2018-11-22T13:06:19.001Z,96.67
2018-11-22T13:08:46.505Z,93.73
2018-11-22T13:11:14.054Z,93.10
2018-11-22T13:13:41.521Z,91.73
2018-11-22T13:16:09.276Z,98.87
2018-11-22T13:18:36.717Z,97.50
2018-11-22T13:21:04.251Z,88.70
2018-11-22T13:23:31.920Z,90.67
2018-11-22T13:25:59.412Z,93.77
2018-11-22T13:28:26.857Z,88.40
2018-11-22T13:30:54.527Z,95.33
2018-11-22T13:33:22.064Z,86.00
2018-11-22T13:35:49.639Z,93.83
2018-11-22T13:38:17.154Z,87.43
2018-11-22T13:40:44.758Z,85.53
2018-11-22T13:43:12.222Z,92.93
2018-11-22T13:45:40.034Z,83.33
2018-11-22T13:48:07.502Z,86.47
2018-11-22T13:50:41.711Z,90.60
2018-11-22T13:53:04.515Z,82.87
2018-11-22T13:55:32.170Z,80.77
2018-11-22T13:57:59.687Z,86.20
2018-11-22T14:00:29.564Z,89.80
2018-11-22T14:02:59.664Z,91.53
2018-11-22T14:05:27.385Z,90.20
2018-11-22T14:07:54.916Z,96.23
2018-11-22T14:10:22.704Z,87.10
2018-11-22T14:12:50.637Z,94.60
2018-11-22T14:15:20.306Z,94.53
2018-11-22T14:17:48.889Z,98.60
2018-11-22T14:20:24.471Z,101.93
2018-11-22T14:22:52.216Z,111.77
2018-11-22T14:25:19.999Z,109.43
2018-11-22T14:27:48.692Z,103.37
2018-11-22T14:30:18.232Z,104.00
2018-11-22T14:32:46.540Z,112.30
2018-11-22T14:35:15.763Z,107.00
2018-11-22T14:37:43.912Z,109.80
2018-11-22T14:40:13.377Z,112.17
2018-11-22T14:42:41.390Z,119.50
2018-11-22T14:45:09.595Z,109.93
2018-11-22T14:47:37.022Z,107.93
2018-11-22T14:50:07.786Z,99.43
2018-11-22T14:52:35.351Z,102.30
2018-11-22T14:55:02.792Z,101.97
2018-11-22T14:57:30.505Z,95.70
2018-11-22T14:59:57.997Z,89.83
2018-11-22T15:02:25.454Z,101.27
2018-11-22T15:04:53.049Z,87.43
2018-11-22T15:07:20.504Z,94.90
2018-11-22T15:09:47.977Z,96.53
2018-11-22T15:12:15.494Z,101.43
2018-11-22T15:14:42.939Z,89.97
2018-11-22T15:17:11.046Z,89.73
2018-11-22T15:19:38.782Z,94.00
2018-11-22T15:22:06.277Z,98.03
2018-11-22T15:24:33.949Z,96.27
2018-11-22T15:27:01.633Z,98.60
2018-11-22T15:29:29.165Z,101.07
2018-11-22T15:31:56.604Z,96.53
2018-11-22T15:34:24.358Z,101.57
2018-11-22T15:36:51.936Z,109.80
2018-11-22T15:39:19.429Z,102.33
2018-11-22T15:41:51.355Z,108.27
2018-11-22T15:44:18.889Z,101.77
2018-11-22T15:46:46.526Z,104.03
2018-11-22T15:49:14.384Z,109.07
2018-11-22T15:51:42.061Z,115.83
2018-11-22T15:54:09.593Z,110.93
2018-11-22T15:56:37.197Z,115.87
2018-11-22T15:59:04.676Z,109.70
2018-11-22T16:01:32.351Z,106.93
2018-11-22T16:03:59.884Z,120.87
2018-11-22T16:06:27.577Z,113.63
2018-11-22T16:08:55.350Z,109.10
2018-11-22T16:11:23.037Z,118.20
2018-11-22T16:13:50.496Z,117.50
2018-11-22T16:16:17.997Z,119.17
2018-11-22T16:18:46.077Z,120.83
2018-11-22T16:21:13.659Z,115.60
2018-11-22T16:23:41.213Z,109.33
2018-11-22T16:26:09.324Z,132.90
2018-11-22T16:28:37.027Z,119.77
2018-11-22T16:31:04.491Z,120.27
2018-11-22T16:33:31.991Z,121.03
2018-11-22T16:35:59.427Z,126.03
2018-11-22T16:38:27.001Z,137.53
2018-11-22T16:40:54.813Z,128.80
2018-11-22T16:43:22.394Z,135.60
2018-11-22T16:45:49.839Z,127.23
2018-11-22T16:48:17.728Z,133.90
2018-11-22T16:50:45.184Z,141.40
2018-11-22T16:53:12.749Z,134.13
2018-11-22T16:55:40.490Z,141.77
2018-11-22T16:58:08.319Z,132.80
2018-11-22T17:00:37.890Z,130.53
2018-11-22T17:03:07.799Z,141.07
2018-11-22T17:05:35.821Z,132.60
2018-11-22T17:08:04.314Z,138.37
2018-11-22T17:10:32.393Z,139.90
2018-11-22T17:13:00.962Z,134.57
2018-11-22T17:15:30.048Z,137.23
2018-11-22T17:17:58.012Z,137.47
2018-11-22T17:20:25.981Z,135.60
2018-11-22T17:22:53.984Z,129.60
2018-11-22T17:25:23.106Z,125.47
2018-11-22T17:27:52.264Z,134.43
2018-11-22T17:30:21.330Z,136.90
2018-11-22T17:32:48.990Z,124.17
2018-11-22T17:35:20.216Z,135.97
2018-11-22T17:37:47.836Z,135.27
2018-11-22T17:40:17.268Z,129.63
2018-11-22T17:42:44.776Z,135.50
2018-11-22T17:45:14.705Z,134.70
2018-11-22T17:47:42.982Z,140.10
2018-11-22T17:50:12.273Z,145.03
2018-11-22T17:52:39.729Z,143.53
2018-11-22T17:55:10.261Z,118.13
2018-11-22T17:57:37.788Z,122.37
2018-11-22T18:00:06.743Z,122.43
2018-11-22T18:02:34.303Z,125.97
2018-11-22T18:05:01.764Z,122.07
2018-11-22T18:07:29.190Z,115.43
2018-11-22T18:09:56.699Z,124.63
2018-11-22T18:12:24.468Z,118.33
2018-11-22T18:14:52.080Z,112.23
2018-11-22T18:17:19.588Z,115.27
2018-11-22T18:19:47.097Z,106.87
2018-11-22T18:22:14.850Z,113.43
2018-11-22T18:24:42.454Z,121.73
2018-11-22T18:27:10.031Z,105.97
2018-11-22T18:29:37.507Z,114.53
2018-11-22T18:32:05.277Z,114.10
2018-11-22T18:34:32.741Z,99.93
2018-11-22T18:37:00.323Z,111.70
2018-11-22T18:39:27.831Z,110.33
2018-11-22T18:41:55.277Z,106.17
2018-11-22T18:44:23.158Z,105.67
2018-11-22T18:46:50.869Z,102.07
2018-11-22T18:49:18.319Z,107.27
2018-11-22T18:51:46.020Z,105.67
2018-11-22T18:54:13.513Z,101.00
2018-11-22T18:59:15.067Z,111.40
2018-11-22T19:01:45.001Z,103.43
2018-11-22T19:04:10.170Z,106.57
2018-11-22T19:06:37.695Z,107.67
2018-11-22T19:09:06.628Z,114.53
2018-11-22T19:11:34.057Z,101.83
2018-11-22T19:14:01.563Z,102.27
2018-11-22T19:16:29.049Z,99.37
2018-11-22T19:21:30.666Z,109.93
2018-11-22T19:23:58.211Z,105.70
2018-11-22T19:26:26.120Z,109.23
2018-11-22T19:28:53.753Z,96.03
2018-11-22T19:31:21.378Z,97.53
2018-11-22T19:33:48.870Z,105.77
2018-11-22T19:36:16.424Z,102.90
2018-11-22T19:38:43.881Z,110.70
2018-11-22T19:41:11.454Z,105.50
2018-11-22T19:43:39.083Z,106.03
2018-11-22T19:46:06.870Z,114.50
2018-11-22T19:48:34.467Z,110.83
2018-11-22T19:51:05.741Z,113.53
2018-11-22T19:53:29.495Z,117.07
2018-11-22T19:55:56.924Z,108.73
2018-11-22T19:58:24.665Z,113.07
2018-11-22T20:00:52.278Z,118.13
2018-11-22T20:03:19.732Z,117.47
2018-11-22T20:05:47.229Z,121.43
2018-11-22T20:08:16.517Z,125.33
2018-11-22T20:10:45.053Z,119.80
2018-11-22T20:13:12.766Z,122.73
2018-11-22T20:15:40.218Z,122.17
2018-11-22T20:18:08.830Z,126.70
2018-11-22T20:20:36.329Z,136.37
2018-11-22T20:23:03.749Z,126.13
2018-11-22T20:25:31.409Z,126.30
2018-11-22T20:27:59.377Z,118.87
2018-11-22T20:30:28.827Z,120.80
2018-11-22T20:32:56.276Z,126.47
2018-11-22T20:35:24.071Z,127.63
2018-11-22T20:37:52.160Z,125.03
2018-11-22T20:40:21.314Z,131.03
2018-11-22T20:42:48.888Z,128.57
2018-11-22T20:45:17.810Z,127.50
2018-11-22T20:47:46.416Z,131.70
2018-11-22T20:50:15.790Z,139.23
2018-11-22T20:52:43.250Z,132.63
2018-11-22T20:55:12.999Z,141.73
2018-11-22T20:57:46.330Z,141.63
2018-11-22T21:00:15.486Z,127.80
2018-11-22T21:02:43.073Z,127.07
2018-11-22T21:05:11.550Z,122.90
2018-11-22T21:07:39.531Z,128.50
2018-11-22T21:10:08.774Z,128.33
2018-11-22T21:12:36.322Z,132.93
2018-11-22T21:15:03.755Z,135.60
2018-11-22T21:17:31.699Z,131.73
2018-11-22T21:19:59.316Z,134.30
2018-11-22T21:22:26.942Z,137.43
2018-11-22T21:24:54.448Z,139.20
2018-11-22T21:27:22.226Z,144.97
2018-11-22T21:29:50.133Z,138.40
2018-11-22T21:32:17.690Z,135.50
2018-11-22T21:34:45.187Z,137.30
2018-11-22T21:37:12.637Z,144.83
2018-11-22T21:39:40.052Z,139.00
2018-11-22T21:42:07.552Z,141.03
2018-11-22T21:44:35.082Z,151.70
2018-11-22T21:47:02.559Z,137.13
2018-11-22T21:49:30.057Z,138.40
2018-11-22T21:51:57.734Z,137.43
2018-11-22T21:54:25.302Z,135.97
2018-11-22T21:56:53.245Z,132.90
2018-11-22T21:59:20.874Z,132.67
2018-11-22T22:01:49.841Z,129.40
2018-11-22T22:04:16.321Z,137.50
2018-11-22T22:06:43.995Z,133.53
2018-11-22T22:09:11.555Z,136.33
2018-11-22T22:11:39.095Z,141.80
2018-11-22T22:14:06.568Z,135.40
2018-11-22T22:16:34.518Z,148.77
2018-11-22T22:19:02.062Z,145.27
2018-11-22T22:21:29.531Z,147.43
2018-11-22T22:23:56.973Z,141.27
2018-11-22T22:26:24.678Z,149.57
2018-11-22T22:28:52.972Z,134.90
2018-11-22T22:31:20.712Z,142.53
2018-11-22T22:33:48.339Z,154.67
2018-11-22T22:36:16.022Z,153.07
2018-11-22T22:38:43.602Z,143.73
2018-11-22T22:41:11.383Z,143.73
2018-11-22T22:43:38.929Z,147.37
2018-11-22T22:46:06.659Z,158.57
2018-11-22T22:48:34.559Z,165.87
2018-11-22T22:51:02.017Z,151.30
2018-11-22T22:53:29.491Z,147.03
2018-11-22T22:55:57.047Z,148.10
2018-11-22T22:58:24.573Z,153.03
2018-11-22T23:00:52.300Z,157.93
2018-11-22T23:03:20.337Z,155.77
2018-11-22T23:05:47.917Z,153.37
2018-11-22T23:08:15.501Z,154.03
2018-11-22T23:10:43.053Z,160.53
2018-11-22T23:13:10.502Z,173.57
2018-11-22T23:15:38.087Z,162.53
2018-11-22T23:18:05.599Z,160.87
2018-11-22T23:20:34.331Z,158.87
2018-11-22T23:23:01.770Z,159.60
2018-11-22T23:25:30.016Z,166.60
2018-11-22T23:27:57.472Z,159.13
2018-11-22T23:30:28.276Z,158.93
2018-11-22T23:33:00.542Z,161.43
2018-11-22T23:35:27.973Z,153.07
2018-11-22T23:37:55.590Z,154.37
2018-11-22T23:40:24.299Z,166.00
2018-11-22T23:42:51.911Z,162.00
2018-11-22T23:45:20.703Z,158.57
2018-11-22T23:47:48.498Z,158.33
2018-11-22T23:50:18.474Z,159.50
2018-11-22T23:52:47.084Z,156.43
2018-11-22T23:55:14.705Z,150.90
2018-11-22T23:57:42.148Z,152.37
